createdAt,value
2019-05-25T00:00:19.135Z,99.90
2019-05-25T00:02:47.621Z,99.90
2019-05-25T00:05:16.473Z,99.90
2019-05-25T00:07:44.905Z,99.90
2019-05-25T00:10:13.949Z,99.90
2019-05-25T00:12:43.298Z,99.90
2019-05-25T00:15:12.143Z,99.90
2019-05-25T00:17:40.577Z,99.90
2019-05-25T00:20:29.898Z,99.90
2019-05-25T00:22:58.337Z,99.90
2019-05-25T00:25:27.067Z,99.90
2019-05-25T00:27:55.750Z,99.90
2019-05-25T00:30:25.169Z,99.90
2019-05-25T00:32:53.954Z,99.90
2019-05-25T00:35:22.746Z,99.90
2019-05-25T00:37:52.113Z,99.90
2019-05-25T00:40:20.838Z,99.90
2019-05-25T00:42:49.626Z,99.90
2019-05-25T00:45:19.063Z,99.90
2019-05-25T00:47:47.517Z,99.90
2019-05-25T00:50:16.526Z,99.90
2019-05-25T00:52:45.256Z,99.90
2019-05-25T00:55:14.264Z,99.90
2019-05-25T00:57:42.713Z,99.90
2019-05-25T01:00:17.320Z,99.90
2019-05-25T01:02:45.793Z,99.90
2019-05-25T01:05:14.940Z,99.90
2019-05-25T01:07:43.372Z,99.90
2019-05-25T01:10:14.115Z,99.90
2019-05-25T01:12:42.917Z,99.90
2019-05-25T01:15:12.836Z,99.90
2019-05-25T01:17:41.530Z,99.90
2019-05-25T01:20:13.712Z,99.90
2019-05-25T01:22:42.169Z,99.90
2019-05-25T01:25:11.699Z,99.90
2019-05-25T01:27:40.142Z,99.90
2019-05-25T01:30:11.629Z,99.90
2019-05-25T01:32:40.069Z,99.90
2019-05-25T01:35:10.158Z,99.90
2019-05-25T01:37:38.701Z,99.90
2019-05-25T01:40:08.155Z,99.90
2019-05-25T01:42:36.944Z,99.90
2019-05-25T01:45:26.511Z,99.90
2019-05-25T01:47:55.287Z,99.90
2019-05-25T01:50:24.081Z,99.90
2019-05-25T01:52:52.510Z,99.90
2019-05-25T01:55:21.245Z,99.90
2019-05-25T01:57:50.033Z,99.90
2019-05-25T02:00:20.249Z,99.90
2019-05-25T02:02:48.720Z,99.90
2019-05-25T02:05:17.455Z,99.90
2019-05-25T02:07:46.229Z,99.90
2019-05-25T02:10:14.903Z,99.90
2019-05-25T02:12:44.287Z,99.90
2019-05-25T02:15:14.169Z,99.90
2019-05-25T02:17:42.950Z,99.90
2019-05-25T02:20:11.623Z,99.90
2019-05-25T02:22:40.090Z,99.90
2019-05-25T02:25:17.524Z,99.90
2019-05-25T02:27:40.209Z,99.90
2019-05-25T02:30:11.051Z,99.90
2019-05-25T02:32:39.510Z,99.90
2019-05-25T02:35:08.638Z,99.90
2019-05-25T02:37:37.473Z,99.90
2019-05-25T02:40:07.755Z,99.90
2019-05-25T02:42:36.201Z,99.90
2019-05-25T02:45:06.584Z,99.90
2019-05-25T02:47:35.415Z,99.90
2019-05-25T02:50:06.798Z,99.90
2019-05-25T02:52:35.257Z,99.90
2019-05-25T02:55:08.721Z,99.90
2019-05-25T02:57:37.474Z,99.90
2019-05-25T03:00:10.561Z,99.90
2019-05-25T03:02:39.743Z,99.90
2019-05-25T03:05:11.403Z,99.90
2019-05-25T03:07:41.250Z,99.90
2019-05-25T03:10:10.200Z,99.90
2019-05-25T03:12:44.652Z,99.90
2019-05-25T03:15:13.833Z,99.90
2019-05-25T03:17:43.559Z,99.90
2019-05-25T03:20:12.554Z,99.90
2019-05-25T03:22:41.426Z,99.90
2019-05-25T03:25:09.876Z,99.90
2019-05-25T03:27:39.287Z,99.90
2019-05-25T03:30:08.646Z,99.90
2019-05-25T03:32:37.437Z,99.90
2019-05-25T03:35:27.085Z,99.90
2019-05-25T03:37:55.807Z,99.90
2019-05-25T03:40:24.561Z,99.90
2019-05-25T03:42:53.740Z,99.90
2019-05-25T03:45:22.173Z,99.90
2019-05-25T03:47:51.033Z,99.90
2019-05-25T03:50:19.489Z,99.90
2019-05-25T03:52:48.029Z,99.90
2019-05-25T03:55:18.441Z,99.90
2019-05-25T03:57:46.886Z,99.90
2019-05-25T04:00:16.667Z,99.90
2019-05-25T04:02:45.162Z,99.90
2019-05-25T04:05:13.726Z,99.90
2019-05-25T04:07:42.914Z,99.90
2019-05-25T04:10:11.801Z,99.90
2019-05-25T04:12:41.545Z,99.90
2019-05-25T04:15:10.660Z,99.90
2019-05-25T04:17:39.163Z,99.90
2019-05-25T04:20:08.059Z,99.90
2019-05-25T04:22:36.492Z,99.90
2019-05-25T04:25:06.780Z,99.90
2019-05-25T04:27:35.222Z,99.90
2019-05-25T04:30:05.298Z,99.90
2019-05-25T04:32:34.110Z,99.90
2019-05-25T04:35:02.911Z,99.90
2019-05-25T04:37:31.705Z,99.90
2019-05-25T04:40:00.205Z,99.90
2019-05-25T04:42:28.687Z,99.90
2019-05-25T04:44:57.131Z,99.90
2019-05-25T04:47:27.410Z,99.90
2019-05-25T04:49:56.377Z,99.90
2019-05-25T04:52:25.169Z,99.90
2019-05-25T04:54:54.043Z,99.90
2019-05-25T04:57:22.855Z,99.90
2019-05-25T04:59:51.301Z,99.90
2019-05-25T05:02:20.053Z,99.90
2019-05-25T05:04:48.498Z,99.90
2019-05-25T05:07:16.948Z,99.90
2019-05-25T05:09:45.690Z,99.90
2019-05-25T05:12:16.431Z,99.90
2019-05-25T05:14:45.226Z,99.90
2019-05-25T05:17:13.669Z,99.90
2019-05-25T05:19:42.121Z,99.90
2019-05-25T05:22:10.562Z,99.90
2019-05-25T05:24:39.950Z,99.90
2019-05-25T05:27:08.401Z,99.90
2019-05-25T05:29:37.183Z,99.90
2019-05-25T05:32:05.700Z,99.90
2019-05-25T05:34:34.542Z,99.90
2019-05-25T05:37:03.809Z,99.90
2019-05-25T05:39:33.048Z,99.90
2019-05-25T05:42:04.399Z,99.90
2019-05-25T05:44:34.101Z,99.90
2019-05-25T05:47:04.434Z,99.90
2019-05-25T05:49:33.630Z,99.90
2019-05-25T05:52:04.214Z,99.90
2019-05-25T05:54:33.385Z,99.90
2019-05-25T05:57:11.666Z,99.90
2019-05-25T05:59:32.011Z,99.90
2019-05-25T06:02:00.778Z,99.90
2019-05-25T06:04:29.230Z,99.90
2019-05-25T06:06:57.941Z,99.90
2019-05-25T06:09:26.633Z,99.90
2019-05-25T06:11:55.081Z,99.90
2019-05-25T06:14:25.859Z,99.90
2019-05-25T06:16:54.656Z,99.90
2019-05-25T06:19:23.502Z,99.90
2019-05-25T06:21:51.950Z,99.90
2019-05-25T06:24:20.718Z,99.90
2019-05-25T06:26:49.157Z,99.90
2019-05-25T06:29:17.670Z,99.90
2019-05-25T06:31:46.483Z,99.90
2019-05-25T06:34:14.925Z,99.90
2019-05-25T06:36:43.667Z,99.90
2019-05-25T06:39:12.165Z,99.90
2019-05-25T06:41:40.621Z,99.90
2019-05-25T06:44:09.361Z,99.90
2019-05-25T06:46:39.792Z,99.90
2019-05-25T06:49:07.981Z,99.90
2019-05-25T06:51:56.085Z,99.90
2019-05-25T06:54:24.988Z,99.90
2019-05-25T06:56:53.480Z,99.90
2019-05-25T06:59:22.340Z,99.90
2019-05-25T07:01:50.798Z,99.90
2019-05-25T07:04:19.240Z,99.90
2019-05-25T07:06:47.703Z,99.90
2019-05-25T07:09:17.042Z,99.90
2019-05-25T07:11:45.789Z,99.90
2019-05-25T07:14:14.585Z,99.90
2019-05-25T07:16:43.046Z,99.90
2019-05-25T07:19:11.485Z,99.90
2019-05-25T07:21:40.005Z,99.90
2019-05-25T07:24:08.721Z,99.90
2019-05-25T07:26:37.194Z,99.90
2019-05-25T07:29:05.759Z,99.90
2019-05-25T07:31:34.505Z,99.90
2019-05-25T07:34:02.968Z,99.90
2019-05-25T07:36:31.765Z,99.90
2019-05-25T07:39:00.241Z,99.90
2019-05-25T07:41:28.708Z,99.90
2019-05-25T07:43:57.494Z,99.90
2019-05-25T07:46:25.949Z,99.90
2019-05-25T07:48:54.402Z,99.90
2019-05-25T07:51:22.845Z,99.90
2019-05-25T07:53:51.580Z,99.90
2019-05-25T07:56:20.371Z,99.90
2019-05-25T07:58:48.816Z,99.90
2019-05-25T08:01:17.553Z,99.90
2019-05-25T08:03:46.044Z,99.90
2019-05-25T08:06:14.544Z,99.90
2019-05-25T08:08:43.317Z,99.90
2019-05-25T08:11:11.757Z,99.90
2019-05-25T08:13:40.249Z,99.90
2019-05-25T08:16:08.753Z,99.90
2019-05-25T08:18:37.204Z,99.90
2019-05-25T08:21:05.800Z,99.90
2019-05-25T08:23:34.547Z,99.90
2019-05-25T08:26:03.009Z,99.90
2019-05-25T08:28:33.115Z,99.90
2019-05-25T08:31:01.899Z,99.90
2019-05-25T08:33:30.615Z,99.90
2019-05-25T08:35:59.411Z,99.90
2019-05-25T08:38:27.874Z,99.90
2019-05-25T08:40:56.303Z,99.90
2019-05-25T08:43:24.740Z,99.90
2019-05-25T08:45:53.201Z,99.90
2019-05-25T08:48:21.658Z,99.90
2019-05-25T08:50:50.522Z,99.90
2019-05-25T08:53:23.185Z,99.90
2019-05-25T08:55:49.390Z,99.90
2019-05-25T08:58:17.825Z,99.90
2019-05-25T09:00:46.305Z,99.90
2019-05-25T09:03:14.745Z,99.90
2019-05-25T09:05:43.518Z,99.90
2019-05-25T09:08:12.265Z,99.90
2019-05-25T09:10:40.713Z,99.90
2019-05-25T09:13:09.171Z,99.90
2019-05-25T09:15:37.634Z,99.90
2019-05-25T09:18:06.303Z,99.90
2019-05-25T09:20:37.160Z,99.90
2019-05-25T09:23:05.585Z,99.90
2019-05-25T09:25:34.054Z,99.90
2019-05-25T09:28:02.500Z,99.90
2019-05-25T09:30:31.202Z,99.90
2019-05-25T09:33:00.027Z,99.90
2019-05-25T09:35:28.517Z,99.90
2019-05-25T09:37:57.376Z,99.90
2019-05-25T09:40:25.845Z,99.90
2019-05-25T09:42:55.257Z,99.90
2019-05-25T09:45:24.461Z,99.90
2019-05-25T09:47:52.913Z,99.90
2019-05-25T09:50:21.349Z,99.80
2019-05-25T09:52:50.145Z,99.00
2019-05-25T09:55:19.380Z,97.70
2019-05-25T09:57:48.126Z,97.90
2019-05-25T10:00:17.521Z,96.90
2019-05-25T10:02:46.267Z,97.60
2019-05-25T10:05:16.414Z,98.20
2019-05-25T10:07:45.131Z,98.70
2019-05-25T10:10:14.032Z,99.00
2019-05-25T10:12:42.748Z,98.40
2019-05-25T10:15:12.633Z,98.60
2019-05-25T10:17:41.084Z,97.40
2019-05-25T10:20:10.933Z,96.00
2019-05-25T10:22:39.398Z,96.00
2019-05-25T10:25:08.647Z,95.00
2019-05-25T10:27:37.269Z,95.40
2019-05-25T10:30:07.850Z,95.80
2019-05-25T10:32:36.870Z,96.40
2019-05-25T10:35:08.093Z,97.20
2019-05-25T10:37:37.507Z,97.30
2019-05-25T10:40:07.696Z,97.60
2019-05-25T10:42:36.129Z,96.90
2019-05-25T10:45:08.179Z,97.00
2019-05-25T10:47:36.904Z,97.70
2019-05-25T10:50:08.104Z,98.00
2019-05-25T10:52:36.925Z,98.30
2019-05-25T10:55:10.338Z,99.00
2019-05-25T10:57:39.487Z,99.40
2019-05-25T11:00:28.850Z,99.90
2019-05-25T11:02:57.538Z,99.90
2019-05-25T11:05:26.365Z,99.90
2019-05-25T11:07:54.866Z,99.90
2019-05-25T11:10:23.492Z,99.90
2019-05-25T11:12:52.422Z,99.10
2019-05-25T11:15:21.214Z,99.30
2019-05-25T11:17:49.655Z,98.90
2019-05-25T11:20:19.689Z,99.10
2019-05-25T11:22:48.408Z,99.20
2019-05-25T11:25:17.178Z,98.90
2019-05-25T11:27:45.764Z,98.40
2019-05-25T11:30:14.645Z,99.10
2019-05-25T11:32:43.069Z,99.70
2019-05-25T11:35:11.958Z,99.40
2019-05-25T11:37:40.464Z,99.70
2019-05-25T11:40:09.568Z,99.50
2019-05-25T11:42:38.091Z,99.40
2019-05-25T11:45:07.708Z,99.90
2019-05-25T11:47:37.611Z,99.90
2019-05-25T11:50:09.727Z,99.90
2019-05-25T11:52:38.694Z,99.90
2019-05-25T11:55:08.885Z,99.90
2019-05-25T11:57:37.748Z,99.90
2019-05-25T12:00:23.351Z,99.90
2019-05-25T12:02:58.349Z,99.90
2019-05-25T12:05:27.158Z,99.90
2019-05-25T12:07:55.757Z,99.90
2019-05-25T12:10:24.532Z,99.90
2019-05-25T12:12:52.969Z,99.90
2019-05-25T12:15:21.701Z,99.80
2019-05-25T12:17:50.138Z,99.30
2019-05-25T12:20:19.382Z,99.50
2019-05-25T12:22:48.187Z,99.90
2019-05-25T12:25:16.770Z,99.90
2019-05-25T12:30:19.289Z,99.90
2019-05-25T12:32:47.727Z,99.90
2019-05-25T12:35:18.294Z,99.90
2019-05-25T12:37:46.737Z,99.90
2019-05-25T12:40:20.881Z,99.90
2019-05-25T12:42:49.671Z,99.90
2019-05-25T12:45:18.839Z,99.90
2019-05-25T12:47:47.591Z,99.90
2019-05-25T12:50:16.695Z,99.90
2019-05-25T12:52:45.372Z,99.90
2019-05-25T12:55:17.741Z,99.90
2019-05-25T12:57:46.265Z,99.90
2019-05-25T13:00:16.568Z,99.90
2019-05-25T13:02:45.432Z,99.90
2019-05-25T13:05:14.677Z,99.90
2019-05-25T13:07:43.142Z,99.90
2019-05-25T13:10:12.127Z,99.90
2019-05-25T13:12:40.878Z,99.90
2019-05-25T13:15:10.038Z,99.90
2019-05-25T13:17:38.654Z,99.90
2019-05-25T13:20:07.942Z,99.90
2019-05-25T13:22:36.374Z,99.40
2019-05-25T13:25:07.125Z,99.20
2019-05-25T13:27:35.765Z,99.40
2019-05-25T13:30:06.569Z,98.20
2019-05-25T13:32:35.344Z,97.20
2019-05-25T13:35:08.109Z,95.80
2019-05-25T13:37:36.817Z,95.50
2019-05-25T13:40:06.953Z,95.60
2019-05-25T13:42:35.419Z,96.00
2019-05-25T13:45:07.415Z,96.20
2019-05-25T13:47:36.384Z,97.00
2019-05-25T13:50:28.371Z,97.50
2019-05-25T13:52:56.996Z,98.10
2019-05-25T13:55:26.641Z,97.50
2019-05-25T13:57:55.522Z,96.80
2019-05-25T14:00:25.030Z,97.10
2019-05-25T14:02:54.022Z,97.40
2019-05-25T14:05:22.453Z,97.60
2019-05-25T14:07:51.197Z,97.00
2019-05-25T14:10:20.631Z,97.30
2019-05-25T14:12:49.146Z,97.40
2019-05-25T14:15:17.679Z,97.50
2019-05-25T14:17:46.189Z,97.40
2019-05-25T14:20:14.889Z,97.30
2019-05-25T14:22:43.633Z,97.90
2019-05-25T14:25:13.029Z,97.70
2019-05-25T14:27:41.486Z,97.40
2019-05-25T14:30:10.951Z,96.20
2019-05-25T14:32:39.561Z,94.10
2019-05-25T14:35:08.826Z,93.40
2019-05-25T14:37:44.373Z,92.80
2019-05-25T14:40:13.450Z,93.30
2019-05-25T14:42:42.258Z,93.90
2019-05-25T14:45:11.574Z,94.70
2019-05-25T14:47:40.054Z,94.70
2019-05-25T14:50:09.773Z,95.60
2019-05-25T14:52:38.658Z,96.10
2019-05-25T14:55:08.329Z,96.40
2019-05-25T14:57:36.778Z,96.60
2019-05-25T15:00:07.536Z,96.80
2019-05-25T15:02:35.994Z,96.80
2019-05-25T15:05:05.517Z,97.50
2019-05-25T15:07:37.209Z,97.30
2019-05-25T15:10:09.530Z,97.30
2019-05-25T15:12:38.388Z,97.80
2019-05-25T15:15:10.523Z,98.00
2019-05-25T15:17:38.973Z,98.10
2019-05-25T15:20:18.671Z,98.30
2019-05-25T15:22:47.502Z,98.30
2019-05-25T15:25:16.278Z,98.10
2019-05-25T15:27:45.087Z,98.00
2019-05-25T15:30:14.181Z,98.40
2019-05-25T15:32:42.988Z,98.70
2019-05-25T15:35:11.781Z,98.20
2019-05-25T15:37:40.565Z,98.30
2019-05-25T15:40:11.163Z,98.10
2019-05-25T15:42:39.919Z,98.20
2019-05-25T15:45:10.210Z,98.50
2019-05-25T15:47:39.002Z,98.70
2019-05-25T15:50:12.832Z,98.70
2019-05-25T15:52:41.642Z,98.50
2019-05-25T15:55:10.777Z,98.60
2019-05-25T15:57:39.505Z,99.00
2019-05-25T16:00:10.499Z,98.80
2019-05-25T16:02:39.216Z,99.10
2019-05-25T16:05:08.105Z,99.30
2019-05-25T16:07:42.276Z,99.30
2019-05-25T16:10:11.461Z,99.10
2019-05-25T16:12:39.903Z,99.20
2019-05-25T16:15:09.431Z,99.20
2019-05-25T16:17:38.734Z,99.00
2019-05-25T16:20:08.801Z,99.70
2019-05-25T16:22:37.660Z,99.90
2019-05-25T16:25:09.512Z,99.90
2019-05-25T16:27:38.526Z,99.90
2019-05-25T16:30:10.053Z,99.90
2019-05-25T16:33:10.123Z,99.90
2019-05-25T16:35:09.565Z,99.40
2019-05-25T16:37:38.299Z,99.50
2019-05-25T16:40:07.986Z,99.50
2019-05-25T16:42:38.867Z,99.30
2019-05-25T16:45:08.047Z,99.20
2019-05-25T16:47:36.937Z,99.30
2019-05-25T16:50:14.307Z,99.30
2019-05-25T16:52:40.154Z,99.50
2019-05-25T16:55:09.923Z,99.60
2019-05-25T16:57:38.498Z,99.80
2019-05-25T17:00:08.285Z,99.70
2019-05-25T17:02:37.275Z,99.10
2019-05-25T17:05:06.266Z,99.20
2019-05-25T17:07:34.784Z,99.80
2019-05-25T17:10:04.583Z,99.70
2019-05-25T17:12:33.069Z,99.90
2019-05-25T17:15:01.856Z,99.90
2019-05-25T17:17:30.382Z,99.90
2019-05-25T17:19:58.805Z,99.90
2019-05-25T17:22:27.273Z,99.90
2019-05-25T17:24:59.231Z,99.90
2019-05-25T17:27:25.873Z,99.90
2019-05-25T17:29:55.279Z,99.90
2019-05-25T17:32:23.785Z,99.90
2019-05-25T17:34:52.314Z,99.90
2019-05-25T17:37:21.408Z,99.90
2019-05-25T17:39:49.884Z,99.90
2019-05-25T17:42:18.369Z,99.90
2019-05-25T17:44:47.072Z,99.90
2019-05-25T17:47:15.598Z,99.90
2019-05-25T17:49:44.430Z,99.90
2019-05-25T17:52:13.330Z,99.90
2019-05-25T17:54:41.746Z,99.90
2019-05-25T17:57:10.199Z,99.90
2019-05-25T17:59:39.001Z,99.90
2019-05-25T18:02:07.895Z,99.90
2019-05-25T18:04:36.389Z,99.90
2019-05-25T18:07:05.793Z,99.90
2019-05-25T18:09:34.234Z,99.90
2019-05-25T18:12:02.746Z,99.90
2019-05-25T18:14:31.637Z,99.90
2019-05-25T18:17:00.128Z,99.90
2019-05-25T18:19:29.827Z,99.90
2019-05-25T18:21:59.107Z,99.90
2019-05-25T18:24:28.032Z,99.90
2019-05-25T18:26:56.717Z,99.90
2019-05-25T18:29:26.118Z,99.90
2019-05-25T18:31:54.546Z,99.90
2019-05-25T18:34:23.244Z,99.90
2019-05-25T18:36:51.991Z,99.90
2019-05-25T18:39:20.796Z,99.90
2019-05-25T18:41:50.266Z,99.90
2019-05-25T18:44:18.974Z,99.90
2019-05-25T18:46:47.772Z,99.90
2019-05-25T18:49:16.473Z,99.90
2019-05-25T18:51:44.945Z,99.90
2019-05-25T18:54:13.384Z,99.90
2019-05-25T18:56:41.829Z,99.90
2019-05-25T18:59:11.185Z,99.90
2019-05-25T19:01:39.687Z,99.90
2019-05-25T19:04:08.129Z,99.90
2019-05-25T19:06:38.834Z,99.90
2019-05-25T19:09:26.882Z,99.90
2019-05-25T19:11:55.333Z,99.90
2019-05-25T19:14:25.746Z,99.90
2019-05-25T19:16:54.193Z,99.90
2019-05-25T19:19:22.661Z,99.90
2019-05-25T19:21:51.101Z,99.90
2019-05-25T19:24:19.550Z,99.90
2019-05-25T19:26:48.025Z,99.90
2019-05-25T19:29:18.473Z,99.90
2019-05-25T19:31:47.213Z,99.90
2019-05-25T19:34:15.666Z,99.90
2019-05-25T19:36:44.402Z,99.90
2019-05-25T19:39:12.894Z,99.90
2019-05-25T19:41:41.688Z,99.90
2019-05-25T19:44:10.209Z,99.90
2019-05-25T19:46:40.644Z,99.90
2019-05-25T19:49:09.101Z,99.90
2019-05-25T19:51:37.874Z,99.90
2019-05-25T19:54:06.808Z,99.90
2019-05-25T19:56:35.329Z,99.90
2019-05-25T19:59:05.166Z,99.90
2019-05-25T20:01:33.653Z,99.90
2019-05-25T20:04:02.578Z,99.90
2019-05-25T20:06:31.007Z,99.90
2019-05-25T20:08:59.543Z,99.90
2019-05-25T20:11:28.318Z,99.90
2019-05-25T20:13:56.902Z,99.90
2019-05-25T20:16:26.358Z,99.90
2019-05-25T20:18:54.846Z,99.90
2019-05-25T20:21:23.329Z,99.90
2019-05-25T20:23:52.749Z,99.90
2019-05-25T20:26:21.243Z,99.90
2019-05-25T20:28:50.775Z,99.90
2019-05-25T20:31:39.329Z,99.90
2019-05-25T20:34:07.783Z,99.90
2019-05-25T20:36:36.221Z,99.90
2019-05-25T20:39:07.157Z,99.90
2019-05-25T20:41:36.942Z,99.90
2019-05-25T20:44:05.448Z,99.90
2019-05-25T20:46:34.924Z,99.90
2019-05-25T20:49:03.358Z,99.90
2019-05-25T20:51:31.809Z,99.90
2019-05-25T20:54:00.242Z,99.90
2019-05-25T20:56:28.694Z,99.90
2019-05-25T20:58:57.128Z,99.90
2019-05-25T21:01:25.796Z,99.90
2019-05-25T21:03:55.241Z,99.90
2019-05-25T21:06:23.674Z,99.90
2019-05-25T21:08:53.450Z,99.90
2019-05-25T21:11:21.905Z,99.90
2019-05-25T21:13:50.347Z,99.90
2019-05-25T21:16:22.745Z,99.90
2019-05-25T21:18:51.190Z,99.90
2019-05-25T21:21:19.974Z,99.90
2019-05-25T21:23:48.762Z,99.90
2019-05-25T21:26:17.220Z,99.90
2019-05-25T21:28:45.668Z,99.90
2019-05-25T21:31:14.108Z,99.90
2019-05-25T21:33:42.905Z,99.90
2019-05-25T21:36:11.705Z,99.90
2019-05-25T21:38:45.142Z,99.90
2019-05-25T21:41:10.822Z,99.90
2019-05-25T21:43:39.337Z,99.90
2019-05-25T21:46:08.098Z,99.90
2019-05-25T21:48:36.549Z,99.90
2019-05-25T21:51:05.053Z,99.90
2019-05-25T21:53:33.517Z,99.90
2019-05-25T21:56:02.262Z,99.90
2019-05-25T21:58:30.788Z,99.90
2019-05-25T22:00:59.444Z,99.90
2019-05-25T22:03:27.906Z,99.90
2019-05-25T22:05:56.622Z,99.90
2019-05-25T22:08:25.390Z,99.90
2019-05-25T22:10:54.751Z,99.90
2019-05-25T22:13:28.414Z,99.90
2019-05-25T22:15:53.630Z,99.90
2019-05-25T22:18:22.150Z,99.90
2019-05-25T22:20:51.905Z,99.90
2019-05-25T22:23:22.345Z,99.90
2019-05-25T22:25:50.998Z,99.90
2019-05-25T22:28:20.385Z,99.90
2019-05-25T22:30:49.209Z,99.90
2019-05-25T22:33:18.193Z,99.90
2019-05-25T22:35:46.978Z,99.90
2019-05-25T22:38:15.419Z,99.90
2019-05-25T22:40:45.229Z,99.90
2019-05-25T22:43:14.016Z,99.90
2019-05-25T22:45:43.761Z,99.90
2019-05-25T22:48:12.190Z,99.90
2019-05-25T22:50:40.715Z,99.90
2019-05-25T22:53:09.163Z,99.90
2019-05-25T22:55:38.605Z,99.90
2019-05-25T22:58:07.529Z,99.90
2019-05-25T23:00:36.933Z,99.90
2019-05-25T23:03:05.393Z,99.90
2019-05-25T23:05:35.008Z,99.90
2019-05-25T23:08:04.454Z,99.90
2019-05-25T23:10:33.338Z,99.90
2019-05-25T23:13:02.206Z,99.90
2019-05-25T23:15:30.772Z,99.90
2019-05-25T23:17:59.378Z,99.90
2019-05-25T23:20:28.857Z,99.90
2019-05-25T23:22:57.557Z,99.90
2019-05-25T23:25:26.378Z,99.90
2019-05-25T23:27:54.909Z,99.90
2019-05-25T23:30:24.011Z,99.90
2019-05-25T23:32:52.822Z,99.90
2019-05-25T23:35:21.268Z,99.90
2019-05-25T23:37:50.101Z,99.90
2019-05-25T23:40:18.722Z,99.90
2019-05-25T23:42:47.156Z,99.90
2019-05-25T23:45:16.044Z,99.90
2019-05-25T23:47:44.762Z,99.90
2019-05-25T23:50:13.564Z,99.90
2019-05-25T23:52:42.005Z,99.90
2019-05-25T23:55:11.626Z,99.90
2019-05-25T23:57:40.205Z,99.90
